sensor_id;sensor_type;location;lat;lon;timestamp;pressure;altitude;pressure_sealevel;temperature;humidity
80308;BME280;69616;43.522;1.348;2023-10-31T00:00:36;99365.84;;;9.99;80.47
80308;BME280;69616;43.522;1.348;2023-10-31T00:03:02;99365.84;;;9.97;79.98
80308;BME280;69616;43.522;1.348;2023-10-31T00:05:27;99357.13;;;9.97;80.44
80308;BME280;69616;43.522;1.348;2023-10-31T00:07:52;99363.22;;;9.97;80.43
80308;BME280;69616;43.522;1.348;2023-10-31T00:10:19;99349.19;;;9.98;80.22
80308;BME280;69616;43.522;1.348;2023-10-31T00:12:44;99342.13;;;10.00;80.10
80308;BME280;69616;43.522;1.348;2023-10-31T00:15:10;99342.13;;;10.00;80.53
80308;BME280;69616;43.522;1.348;2023-10-31T00:17:35;99343.91;;;10.01;80.18
80308;BME280;69616;43.522;1.348;2023-10-31T00:20:01;99341.22;;;10.03;80.38
80308;BME280;69616;43.522;1.348;2023-10-31T00:22:26;99336.84;;;10.03;80.00
80308;BME280;69616;43.522;1.348;2023-10-31T00:24:51;99343.84;;;10.04;80.02
80308;BME280;69616;43.522;1.348;2023-10-31T00:27:17;99347.31;;;10.07;80.00
80308;BME280;69616;43.522;1.348;2023-10-31T00:29:42;99348.16;;;10.09;79.85
80308;BME280;69616;43.522;1.348;2023-10-31T00:32:08;99347.25;;;10.10;79.65
80308;BME280;69616;43.522;1.348;2023-10-31T00:34:33;99356.84;;;10.12;80.00
80308;BME280;69616;43.522;1.348;2023-10-31T00:36:58;99356.84;;;10.12;79.47
80308;BME280;69616;43.522;1.348;2023-10-31T00:39:24;99357.72;;;10.13;79.43
80308;BME280;69616;43.522;1.348;2023-10-31T00:41:49;99361.19;;;10.15;79.65
80308;BME280;69616;43.522;1.348;2023-10-31T00:44:14;99364.72;;;10.14;79.61
80308;BME280;69616;43.522;1.348;2023-10-31T00:46:40;99377.94;;;10.11;79.89
80308;BME280;69616;43.522;1.348;2023-10-31T00:49:05;99384.13;;;10.07;80.66
80308;BME280;69616;43.522;1.348;2023-10-31T00:51:31;99390.31;;;10.04;80.70
80308;BME280;69616;43.522;1.348;2023-10-31T00:53:56;99388.56;;;10.03;80.57
80308;BME280;69616;43.522;1.348;2023-10-31T00:56:22;99403.50;;;10.02;80.89
80308;BME280;69616;43.522;1.348;2023-10-31T00:58:47;99394.72;;;10.02;80.55
80308;BME280;69616;43.522;1.348;2023-10-31T01:01:13;99409.66;;;10.01;80.96
80308;BME280;69616;43.522;1.348;2023-10-31T01:03:39;99414.09;;;9.96;81.41
80308;BME280;69616;43.522;1.348;2023-10-31T01:06:05;99417.66;;;9.94;81.47
80308;BME280;69616;43.522;1.348;2023-10-31T01:08:30;99412.47;;;9.89;82.07
80308;BME280;69616;43.522;1.348;2023-10-31T01:10:56;99415.09;;;9.87;82.41
80308;BME280;69616;43.522;1.348;2023-10-31T01:13:21;99413.41;;;9.85;82.93
80308;BME280;69616;43.522;1.348;2023-10-31T01:15:46;99410.72;;;9.88;82.46
80308;BME280;69616;43.522;1.348;2023-10-31T01:18:12;99428.22;;;9.89;82.07
80308;BME280;69616;43.522;1.348;2023-10-31T01:20:37;99429.13;;;9.89;82.35
80308;BME280;69616;43.522;1.348;2023-10-31T01:23:03;99431.69;;;9.93;82.02
80308;BME280;69616;43.522;1.348;2023-10-31T01:25:29;99437.81;;;9.95;81.72
80308;BME280;69616;43.522;1.348;2023-10-31T01:27:54;99442.19;;;9.94;81.78
80308;BME280;69616;43.522;1.348;2023-10-31T01:30:19;99436.91;;;9.94;82.08
80308;BME280;69616;43.522;1.348;2023-10-31T01:32:45;99446.59;;;9.94;82.32
80308;BME280;69616;43.522;1.348;2023-10-31T01:35:10;99446.53;;;9.95;81.98
80308;BME280;69616;43.522;1.348;2023-10-31T01:37:35;99443.97;;;9.92;82.89
80308;BME280;69616;43.522;1.348;2023-10-31T01:40:01;99450.91;;;9.96;82.83
80308;BME280;69616;43.522;1.348;2023-10-31T01:42:28;99447.44;;;9.94;82.79
80308;BME280;69616;43.522;1.348;2023-10-31T01:44:53;99440.44;;;9.93;83.50
80308;BME280;69616;43.522;1.348;2023-10-31T01:47:19;99443.91;;;9.95;83.19
80308;BME280;69616;43.522;1.348;2023-10-31T01:49:44;99446.53;;;9.97;83.31
80308;BME280;69616;43.522;1.348;2023-10-31T01:52:09;99443.88;;;9.98;83.39
80308;BME280;69616;43.522;1.348;2023-10-31T01:54:35;99456.13;;;9.99;83.15
80308;BME280;69616;43.522;1.348;2023-10-31T01:57:02;99465.75;;;10.00;83.16
80308;BME280;69616;43.522;1.348;2023-10-31T01:59:28;99454.38;;;10.01;83.23
80308;BME280;69616;43.522;1.348;2023-10-31T02:01:55;99451.72;;;10.01;83.75
80308;BME280;69616;43.522;1.348;2023-10-31T02:04:23;99449.94;;;10.03;83.35
80308;BME280;69616;43.522;1.348;2023-10-31T02:06:48;99461.31;;;10.05;83.46
80308;BME280;69616;43.522;1.348;2023-10-31T02:09:14;99463.00;;;10.10;83.06
80308;BME280;69616;43.522;1.348;2023-10-31T02:11:39;99464.75;;;10.11;83.66
80308;BME280;69616;43.522;1.348;2023-10-31T02:14:04;99461.22;;;10.12;83.32
80308;BME280;69616;43.522;1.348;2023-10-31T02:16:30;99461.16;;;10.15;83.38
80308;BME280;69616;43.522;1.348;2023-10-31T02:18:55;99459.41;;;10.15;83.63
80308;BME280;69616;43.522;1.348;2023-10-31T02:21:21;99455.91;;;10.15;83.75
80308;BME280;69616;43.522;1.348;2023-10-31T02:24:02;99454.13;;;10.17;83.26
80308;BME280;69616;43.522;1.348;2023-10-31T02:26:32;99442.75;;;10.16;84.02
80308;BME280;69616;43.522;1.348;2023-10-31T02:28:58;99437.47;;;10.15;84.10
80308;BME280;69616;43.522;1.348;2023-10-31T02:31:23;99444.41;;;10.20;83.26
80308;BME280;69616;43.522;1.348;2023-10-31T02:33:49;99447.91;;;10.21;83.32
80308;BME280;69616;43.522;1.348;2023-10-31T02:36:14;99442.69;;;10.19;83.76
80308;BME280;69616;43.522;1.348;2023-10-31T02:38:40;99447.91;;;10.21;83.53
80308;BME280;69616;43.522;1.348;2023-10-31T02:41:05;99442.63;;;10.21;83.46
80308;BME280;69616;43.522;1.348;2023-10-31T02:43:30;99444.41;;;10.20;83.53
80308;BME280;69616;43.522;1.348;2023-10-31T02:45:56;99448.81;;;10.20;83.22
80308;BME280;69616;43.522;1.348;2023-10-31T02:48:21;99445.31;;;10.19;83.18
80308;BME280;69616;43.522;1.348;2023-10-31T02:50:47;99456.69;;;10.20;83.66
80308;BME280;69616;43.522;1.348;2023-10-31T02:53:12;99455.84;;;10.18;83.54
80308;BME280;69616;43.522;1.348;2023-10-31T02:55:37;99455.00;;;10.17;83.65
80308;BME280;69616;43.522;1.348;2023-10-31T02:58:03;99447.06;;;10.19;83.20
80308;BME280;69616;43.522;1.348;2023-10-31T03:00:28;99454.13;;;10.17;83.66
80308;BME280;69616;43.522;1.348;2023-10-31T03:02:54;99451.47;;;10.18;83.43
80308;BME280;69616;43.522;1.348;2023-10-31T03:05:19;99456.72;;;10.18;83.46
80308;BME280;69616;43.522;1.348;2023-10-31T03:07:44;99445.38;;;10.15;83.41
80308;BME280;69616;43.522;1.348;2023-10-31T03:10:10;99450.63;;;10.15;83.08
80308;BME280;69616;43.522;1.348;2023-10-31T03:12:35;99441.91;;;10.13;83.41
80308;BME280;69616;43.522;1.348;2023-10-31T03:15:02;99453.31;;;10.13;83.23
80308;BME280;69616;43.522;1.348;2023-10-31T03:17:29;99453.31;;;10.12;83.06
80308;BME280;69616;43.522;1.348;2023-10-31T03:19:54;99449.00;;;10.08;83.14
80308;BME280;69616;43.522;1.348;2023-10-31T03:22:20;99455.16;;;10.07;83.25
80308;BME280;69616;43.522;1.348;2023-10-31T03:24:46;99451.63;;;10.08;83.00
80308;BME280;69616;43.522;1.348;2023-10-31T03:27:11;99450.78;;;10.05;83.28
80308;BME280;69616;43.522;1.348;2023-10-31T03:29:36;99449.97;;;10.02;83.29
80308;BME280;69616;43.522;1.348;2023-10-31T03:32:02;99462.25;;;10.01;82.81
80308;BME280;69616;43.522;1.348;2023-10-31T03:34:27;99457.91;;;9.97;83.24
80308;BME280;69616;43.522;1.348;2023-10-31T03:36:52;99457.00;;;9.98;83.02
80308;BME280;69616;43.522;1.348;2023-10-31T03:39:18;99459.66;;;9.98;83.01
80308;BME280;69616;43.522;1.348;2023-10-31T03:41:43;99462.28;;;9.98;82.78
80308;BME280;69616;43.522;1.348;2023-10-31T03:44:09;99455.28;;;9.99;82.85
80308;BME280;69616;43.522;1.348;2023-10-31T03:46:35;99465.78;;;9.99;82.42
80308;BME280;69616;43.522;1.348;2023-10-31T03:49:00;99464.91;;;9.98;82.95
80308;BME280;69616;43.522;1.348;2023-10-31T03:51:25;99463.16;;;9.97;82.79
80308;BME280;69616;43.522;1.348;2023-10-31T03:53:51;99466.78;;;9.90;82.28
80308;BME280;69616;43.522;1.348;2023-10-31T03:56:16;99471.19;;;9.89;82.64
80308;BME280;69616;43.522;1.348;2023-10-31T03:58:43;99474.78;;;9.84;82.24
80308;BME280;69616;43.522;1.348;2023-10-31T04:01:08;99469.50;;;9.84;82.59
80308;BME280;69616;43.522;1.348;2023-10-31T04:03:34;99475.66;;;9.81;82.21
80308;BME280;69616;43.522;1.348;2023-10-31T04:05:59;99476.56;;;9.82;82.28
80308;BME280;69616;43.522;1.348;2023-10-31T04:08:25;99476.59;;;9.79;82.18
80308;BME280;69616;43.522;1.348;2023-10-31T04:10:50;99477.50;;;9.77;82.28
80308;BME280;69616;43.522;1.348;2023-10-31T04:13:15;99491.50;;;9.76;82.30
80308;BME280;69616;43.522;1.348;2023-10-31T04:15:41;99492.44;;;9.74;82.11
80308;BME280;69616;43.522;1.348;2023-10-31T04:18:06;99489.81;;;9.72;82.07
80308;BME280;69616;43.522;1.348;2023-10-31T04:20:31;99489.84;;;9.69;82.10
80308;BME280;69616;43.522;1.348;2023-10-31T04:22:57;99489.00;;;9.67;81.99
80308;BME280;69616;43.522;1.348;2023-10-31T04:25:22;99493.41;;;9.65;81.96
80308;BME280;69616;43.522;1.348;2023-10-31T04:27:48;99503.94;;;9.63;82.05
80308;BME280;69616;43.522;1.348;2023-10-31T04:30:14;99507.50;;;9.61;81.84
80308;BME280;69616;43.522;1.348;2023-10-31T04:32:40;99515.41;;;9.56;81.95
80308;BME280;69616;43.522;1.348;2023-10-31T04:35:05;99514.63;;;9.50;82.05
80308;BME280;69616;43.522;1.348;2023-10-31T04:37:31;99524.28;;;9.47;81.77
80308;BME280;69616;43.522;1.348;2023-10-31T04:39:56;99528.69;;;9.45;81.99
80308;BME280;69616;43.522;1.348;2023-10-31T04:42:21;99523.47;;;9.42;81.95
80308;BME280;69616;43.522;1.348;2023-10-31T04:44:47;99529.63;;;9.40;81.88
80308;BME280;69616;43.522;1.348;2023-10-31T04:47:13;99525.25;;;9.39;81.93
80308;BME280;69616;43.522;1.348;2023-10-31T04:49:38;99523.56;;;9.34;82.35
80308;BME280;69616;43.522;1.348;2023-10-31T04:52:04;99533.16;;;9.36;81.88
80308;BME280;69616;43.522;1.348;2023-10-31T04:54:29;99540.16;;;9.37;81.66
80308;BME280;69616;43.522;1.348;2023-10-31T04:56:55;99538.44;;;9.36;81.53
80308;BME280;69616;43.522;1.348;2023-10-31T04:59:20;99531.47;;;9.33;81.77
80308;BME280;69616;43.522;1.348;2023-10-31T05:01:49;99542.91;;;9.29;81.70
80308;BME280;69616;43.522;1.348;2023-10-31T05:04:16;99546.38;;;9.28;82.11
80308;BME280;69616;43.522;1.348;2023-10-31T05:06:42;99545.53;;;9.27;81.94
80308;BME280;69616;43.522;1.348;2023-10-31T05:09:07;99542.91;;;9.29;81.61
80308;BME280;69616;43.522;1.348;2023-10-31T05:11:33;99552.53;;;9.28;81.71
80308;BME280;69616;43.522;1.348;2023-10-31T05:13:58;99558.66;;;9.29;81.36
80308;BME280;69616;43.522;1.348;2023-10-31T05:16:24;99550.78;;;9.27;81.61
80308;BME280;69616;43.522;1.348;2023-10-31T05:18:49;99557.81;;;9.25;81.65
80308;BME280;69616;43.522;1.348;2023-10-31T05:21:19;99559.63;;;9.18;81.41
80308;BME280;69616;43.522;1.348;2023-10-31T05:23:46;99561.41;;;9.15;81.53
80308;BME280;69616;43.522;1.348;2023-10-31T05:26:11;99564.94;;;9.12;81.59
80308;BME280;69616;43.522;1.348;2023-10-31T05:28:36;99571.94;;;9.12;81.63
80308;BME280;69616;43.522;1.348;2023-10-31T05:31:02;99562.31;;;9.11;81.51
80308;BME280;69616;43.522;1.348;2023-10-31T05:33:28;99572.84;;;9.09;81.37
80308;BME280;69616;43.522;1.348;2023-10-31T05:35:54;99575.50;;;9.06;81.68
80308;BME280;69616;43.522;1.348;2023-10-31T05:38:19;99571.16;;;9.05;81.42
80308;BME280;69616;43.522;1.348;2023-10-31T05:40:45;99568.53;;;9.02;81.77
80308;BME280;69616;43.522;1.348;2023-10-31T05:43:10;99579.91;;;9.01;81.25
80308;BME280;69616;43.522;1.348;2023-10-31T05:45:35;99579.94;;;8.98;81.26
80308;BME280;69616;43.522;1.348;2023-10-31T05:48:01;99583.47;;;8.97;81.52
80308;BME280;69616;43.522;1.348;2023-10-31T05:50:26;99597.47;;;8.96;81.46
80308;BME280;69616;43.522;1.348;2023-10-31T05:52:52;99593.13;;;8.93;81.30
80308;BME280;69616;43.522;1.348;2023-10-31T05:55:17;99597.50;;;8.93;81.21
80308;BME280;69616;43.522;1.348;2023-10-31T05:57:42;99602.75;;;8.93;81.31
80308;BME280;69616;43.522;1.348;2023-10-31T06:00:08;99604.50;;;8.92;81.32
80308;BME280;69616;43.522;1.348;2023-10-31T06:02:34;99608.00;;;8.93;81.21
80308;BME280;69616;43.522;1.348;2023-10-31T06:04:59;99606.25;;;8.92;81.27
80308;BME280;69616;43.522;1.348;2023-10-31T06:07:25;99607.13;;;8.92;81.04
80308;BME280;69616;43.522;1.348;2023-10-31T06:09:50;99618.53;;;8.89;80.60
80308;BME280;69616;43.522;1.348;2023-10-31T06:12:16;99616.78;;;8.88;80.73
80308;BME280;69616;43.522;1.348;2023-10-31T06:14:41;99623.78;;;8.88;80.73
80308;BME280;69616;43.522;1.348;2023-10-31T06:17:06;99619.47;;;8.82;80.92
80308;BME280;69616;43.522;1.348;2023-10-31T06:19:38;99624.72;;;8.79;80.89
80308;BME280;69616;43.522;1.348;2023-10-31T06:22:09;99633.47;;;8.78;80.97
80308;BME280;69616;43.522;1.348;2023-10-31T06:24:35;99635.25;;;8.78;80.86
80308;BME280;69616;43.522;1.348;2023-10-31T06:27:00;99629.13;;;8.77;81.07
80308;BME280;69616;43.522;1.348;2023-10-31T06:29:25;99637.88;;;8.76;80.83
80308;BME280;69616;43.522;1.348;2023-10-31T06:31:51;99639.63;;;8.77;80.89
80308;BME280;69616;43.522;1.348;2023-10-31T06:34:16;99650.13;;;8.77;80.92
80308;BME280;69616;43.522;1.348;2023-10-31T06:36:42;99648.38;;;8.78;80.61
80308;BME280;69616;43.522;1.348;2023-10-31T06:39:10;99653.63;;;8.78;80.80
80308;BME280;69616;43.522;1.348;2023-10-31T06:41:35;99653.59;;;8.79;80.78
80308;BME280;69616;43.522;1.348;2023-10-31T06:44:01;99661.47;;;8.79;80.54
80308;BME280;69616;43.522;1.348;2023-10-31T06:46:26;99664.09;;;8.79;80.50
80308;BME280;69616;43.522;1.348;2023-10-31T06:48:51;99672.88;;;8.81;80.70
80308;BME280;69616;43.522;1.348;2023-10-31T06:51:17;99679.84;;;8.85;80.50
80308;BME280;69616;43.522;1.348;2023-10-31T06:53:42;99679.81;;;8.88;80.19
80308;BME280;69616;43.522;1.348;2023-10-31T06:56:08;99685.00;;;8.95;80.52
80308;BME280;69616;43.522;1.348;2023-10-31T06:58:33;99685.84;;;9.00;79.95
80308;BME280;69616;43.522;1.348;2023-10-31T07:00:58;99689.34;;;9.03;80.25
80308;BME280;69616;43.522;1.348;2023-10-31T07:03:25;99691.06;;;9.08;80.28
80308;BME280;69616;43.522;1.348;2023-10-31T07:05:50;99699.75;;;9.13;80.18
80308;BME280;69616;43.522;1.348;2023-10-31T07:08:16;99705.88;;;9.16;80.22
80308;BME280;69616;43.522;1.348;2023-10-31T07:10:41;99704.06;;;9.22;80.18
80308;BME280;69616;43.522;1.348;2023-10-31T07:13:07;99707.56;;;9.24;80.02
80308;BME280;69616;43.522;1.348;2023-10-31T07:15:32;99706.69;;;9.26;79.96
80308;BME280;69616;43.522;1.348;2023-10-31T07:17:58;99715.41;;;9.28;80.22
80308;BME280;69616;43.522;1.348;2023-10-31T07:20:23;99712.78;;;9.27;80.16
80308;BME280;69616;43.522;1.348;2023-10-31T07:22:48;99716.31;;;9.26;80.02
80308;BME280;69616;43.522;1.348;2023-10-31T07:25:14;99721.56;;;9.27;80.46
80308;BME280;69616;43.522;1.348;2023-10-31T07:27:40;99725.91;;;9.31;80.30
80308;BME280;69616;43.522;1.348;2023-10-31T07:30:06;99722.38;;;9.36;80.08
80308;BME280;69616;43.522;1.348;2023-10-31T07:32:31;99724.97;;;9.40;79.84
80308;BME280;69616;43.522;1.348;2023-10-31T07:34:57;99727.56;;;9.43;80.27
80308;BME280;69616;43.522;1.348;2023-10-31T07:37:22;99735.41;;;9.46;79.97
80308;BME280;69616;43.522;1.348;2023-10-31T07:39:47;99741.53;;;9.50;79.90
80308;BME280;69616;43.522;1.348;2023-10-31T07:42:14;99752.88;;;9.57;79.96
80308;BME280;69616;43.522;1.348;2023-10-31T07:44:39;99750.19;;;9.61;80.00
80308;BME280;69616;43.522;1.348;2023-10-31T07:47:04;99753.69;;;9.67;80.04
80308;BME280;69616;43.522;1.348;2023-10-31T07:49:30;99749.16;;;9.83;79.82
80308;BME280;69616;43.522;1.348;2023-10-31T07:51:55;99759.50;;;10.01;79.28
80308;BME280;69616;43.522;1.348;2023-10-31T07:54:21;99756.66;;;10.20;79.53
80308;BME280;69616;43.522;1.348;2023-10-31T07:56:46;99755.59;;;10.37;79.10
80308;BME280;69616;43.522;1.348;2023-10-31T07:59:11;99765.13;;;10.50;78.94
80308;BME280;69616;43.522;1.348;2023-10-31T08:01:37;99767.53;;;10.69;78.85
80308;BME280;69616;43.522;1.348;2023-10-31T08:04:02;99767.25;;;10.90;78.17
80308;BME280;69616;43.522;1.348;2023-10-31T08:06:28;99759.94;;;11.11;78.16
80308;BME280;69616;43.522;1.348;2023-10-31T08:08:54;99754.34;;;11.33;77.77
80308;BME280;69616;43.522;1.348;2023-10-31T08:11:19;99757.56;;;11.52;77.83
80308;BME280;69616;43.522;1.348;2023-10-31T08:13:45;99760.81;;;11.68;77.30
80308;BME280;69616;43.522;1.348;2023-10-31T08:16:17;99770.41;;;11.74;77.22
80308;BME280;69616;43.522;1.348;2023-10-31T08:18:42;99776.56;;;11.74;76.99
80308;BME280;69616;43.522;1.348;2023-10-31T08:21:08;99776.56;;;11.74;77.45
80308;BME280;69616;43.522;1.348;2023-10-31T08:23:33;99792.38;;;11.74;77.34
80308;BME280;69616;43.522;1.348;2023-10-31T08:26:00;99797.66;;;11.74;77.46
80308;BME280;69616;43.522;1.348;2023-10-31T08:28:25;99794.91;;;11.82;77.26
80308;BME280;69616;43.522;1.348;2023-10-31T08:30:51;99797.44;;;11.87;77.43
80308;BME280;69616;43.522;1.348;2023-10-31T08:33:16;99801.75;;;11.92;77.22
80308;BME280;69616;43.522;1.348;2023-10-31T08:35:41;99790.28;;;11.95;77.46
80308;BME280;69616;43.522;1.348;2023-10-31T08:38:08;99801.75;;;11.92;77.31
80308;BME280;69616;43.522;1.348;2023-10-31T08:40:33;99791.19;;;11.94;77.45
80308;BME280;69616;43.522;1.348;2023-10-31T08:42:58;99792.03;;;11.96;77.63
80308;BME280;69616;43.522;1.348;2023-10-31T08:45:25;99797.25;;;11.99;77.77
80308;BME280;69616;43.522;1.348;2023-10-31T08:47:51;99794.56;;;12.02;77.83
80308;BME280;69616;43.522;1.348;2023-10-31T08:50:16;99791.88;;;12.05;77.80
80308;BME280;69616;43.522;1.348;2023-10-31T08:52:42;99792.69;;;12.09;77.80
80308;BME280;69616;43.522;1.348;2023-10-31T08:55:07;99796.13;;;12.13;77.85
80308;BME280;69616;43.522;1.348;2023-10-31T08:57:33;99804.88;;;12.18;77.88
80308;BME280;69616;43.522;1.348;2023-10-31T08:59:59;99805.59;;;12.26;78.01
80308;BME280;69616;43.522;1.348;2023-10-31T09:02:25;99814.22;;;12.36;77.85
80308;BME280;69616;43.522;1.348;2023-10-31T09:04:50;99814.84;;;12.49;77.90
80308;BME280;69616;43.522;1.348;2023-10-31T09:07:15;99814.59;;;12.61;77.64
80308;BME280;69616;43.522;1.348;2023-10-31T09:09:41;99815.25;;;12.73;77.87
80308;BME280;69616;43.522;1.348;2023-10-31T09:12:06;99810.53;;;12.87;77.28
80308;BME280;69616;43.522;1.348;2023-10-31T09:14:32;99804.13;;;13.01;77.27
80308;BME280;69616;43.522;1.348;2023-10-31T09:16:57;99804.56;;;13.21;76.55
80308;BME280;69616;43.522;1.348;2023-10-31T09:19:23;99810.25;;;13.42;76.07
80308;BME280;69616;43.522;1.348;2023-10-31T09:21:48;99803.50;;;13.68;75.48
80308;BME280;69616;43.522;1.348;2023-10-31T09:24:13;99809.19;;;13.89;75.33
80308;BME280;69616;43.522;1.348;2023-10-31T09:26:42;99806.81;;;14.13;74.73
80308;BME280;69616;43.522;1.348;2023-10-31T09:29:08;99813.59;;;14.23;74.29
80308;BME280;69616;43.522;1.348;2023-10-31T09:31:33;99812.59;;;14.27;73.56
80308;BME280;69616;43.522;1.348;2023-10-31T09:33:59;99813.63;;;14.21;74.15
80308;BME280;69616;43.522;1.348;2023-10-31T09:36:24;99814.59;;;14.19;73.70
80308;BME280;69616;43.522;1.348;2023-10-31T09:38:50;99816.03;;;14.31;72.77
80308;BME280;69616;43.522;1.348;2023-10-31T09:41:15;99817.59;;;14.38;73.11
80308;BME280;69616;43.522;1.348;2023-10-31T09:43:40;99815.41;;;14.54;73.20
80308;BME280;69616;43.522;1.348;2023-10-31T09:46:08;99813.97;;;14.75;71.78
80308;BME280;69616;43.522;1.348;2023-10-31T09:48:35;99815.91;;;15.00;70.40
80308;BME280;69616;43.522;1.348;2023-10-31T09:51:01;99813.47;;;15.23;70.56
80308;BME280;69616;43.522;1.348;2023-10-31T09:53:27;99814.53;;;15.45;69.92
80308;BME280;69616;43.522;1.348;2023-10-31T09:55:54;99816.50;;;15.67;69.56
80308;BME280;69616;43.522;1.348;2023-10-31T09:58:22;99804.75;;;15.74;68.39
80308;BME280;69616;43.522;1.348;2023-10-31T10:00:47;99813.25;;;15.86;66.68
80308;BME280;69616;43.522;1.348;2023-10-31T10:03:13;99798.72;;;15.98;67.19
80308;BME280;69616;43.522;1.348;2023-10-31T10:05:39;99806.25;;;16.10;67.18
80308;BME280;69616;43.522;1.348;2023-10-31T10:08:06;99805.16;;;16.17;67.50
80308;BME280;69616;43.522;1.348;2023-10-31T10:10:33;99795.22;;;16.23;67.05
80308;BME280;69616;43.522;1.348;2023-10-31T10:12:59;99794.16;;;16.28;65.55
80308;BME280;69616;43.522;1.348;2023-10-31T10:15:27;99797.22;;;16.41;65.65
80308;BME280;69616;43.522;1.348;2023-10-31T10:17:53;99792.09;;;16.60;65.71
80308;BME280;69616;43.522;1.348;2023-10-31T10:20:19;99785.47;;;16.72;63.46
80308;BME280;69616;43.522;1.348;2023-10-31T10:22:45;99791.75;;;16.70;62.62
80308;BME280;69616;43.522;1.348;2023-10-31T10:25:14;99805.16;;;16.67;62.15
80308;BME280;69616;43.522;1.348;2023-10-31T10:27:43;99791.56;;;16.76;60.73
80308;BME280;69616;43.522;1.348;2023-10-31T10:30:10;99791.31;;;16.82;61.06
80308;BME280;69616;43.522;1.348;2023-10-31T10:32:35;99797.16;;;16.92;61.32
80308;BME280;69616;43.522;1.348;2023-10-31T10:35:01;99799.19;;;17.09;60.14
80308;BME280;69616;43.522;1.348;2023-10-31T10:37:27;99794.13;;;17.25;59.95
80308;BME280;69616;43.522;1.348;2023-10-31T10:39:56;99792.91;;;17.34;58.44
80308;BME280;69616;43.522;1.348;2023-10-31T10:42:33;99792.34;;;17.48;58.47
80308;BME280;69616;43.522;1.348;2023-10-31T10:45:04;99784.47;;;17.67;58.64
80308;BME280;69616;43.522;1.348;2023-10-31T10:47:31;99788.41;;;17.79;58.53
80308;BME280;69616;43.522;1.348;2023-10-31T10:50:01;99779.13;;;17.89;57.01
80308;BME280;69616;43.522;1.348;2023-10-31T10:52:33;99788.53;;;17.98;56.66
80308;BME280;69616;43.522;1.348;2023-10-31T10:55:20;99783.09;;;18.01;56.28
80308;BME280;69616;43.522;1.348;2023-10-31T10:58:08;99786.94;;;18.15;54.95
80308;BME280;69616;43.522;1.348;2023-10-31T11:00:34;99790.03;;;18.26;54.91
80308;BME280;69616;43.522;1.348;2023-10-31T11:03:00;99796.06;;;18.30;54.02
80308;BME280;69616;43.522;1.348;2023-10-31T11:05:27;99786.81;;;18.39;53.45
80308;BME280;69616;43.522;1.348;2023-10-31T11:07:53;99790.81;;;18.28;53.56
80308;BME280;69616;43.522;1.348;2023-10-31T11:10:21;99776.94;;;18.20;54.73
80308;BME280;69616;43.522;1.348;2023-10-31T11:12:46;99788.81;;;18.33;54.29
80308;BME280;69616;43.522;1.348;2023-10-31T11:15:15;99780.41;;;18.43;54.13
80308;BME280;69616;43.522;1.348;2023-10-31T11:17:42;99796.53;;;18.60;53.67
80308;BME280;69616;43.522;1.348;2023-10-31T11:20:13;99780.81;;;18.73;53.26
80308;BME280;69616;43.522;1.348;2023-10-31T11:22:40;99787.34;;;18.87;52.42
80308;BME280;69616;43.522;1.348;2023-10-31T11:25:09;99786.31;;;18.89;53.19
80308;BME280;69616;43.522;1.348;2023-10-31T11:27:35;99779.72;;;18.98;52.43
80308;BME280;69616;43.522;1.348;2023-10-31T11:30:04;99780.59;;;18.99;52.74
80308;BME280;69616;43.522;1.348;2023-10-31T11:32:32;99775.84;;;19.05;52.30
80308;BME280;69616;43.522;1.348;2023-10-31T11:34:57;99780.59;;;18.99;51.97
80308;BME280;69616;43.522;1.348;2023-10-31T11:37:31;99783.56;;;18.72;53.34
80308;BME280;69616;43.522;1.348;2023-10-31T11:40:22;99779.41;;;18.45;54.35
80308;BME280;69616;43.522;1.348;2023-10-31T11:42:52;99785.06;;;18.38;54.73
80308;BME280;69616;43.522;1.348;2023-10-31T11:45:34;99784.75;;;18.45;54.92
80308;BME280;69616;43.522;1.348;2023-10-31T11:48:04;99784.56;;;18.50;54.73
80308;BME280;69616;43.522;1.348;2023-10-31T11:50:30;99783.59;;;18.51;53.98
80308;BME280;69616;43.522;1.348;2023-10-31T11:55:30;99775.19;;;18.60;53.75
80308;BME280;69616;43.522;1.348;2023-10-31T11:58:04;99774.50;;;18.76;53.61
80308;BME280;69616;43.522;1.348;2023-10-31T12:00:37;99772.75;;;18.94;52.46
80308;BME280;69616;43.522;1.348;2023-10-31T12:03:03;99765.03;;;19.08;53.06
80308;BME280;69616;43.522;1.348;2023-10-31T12:05:28;99773.28;;;19.02;52.51
80308;BME280;69616;43.522;1.348;2023-10-31T12:07:54;99765.28;;;19.21;53.06
80308;BME280;69616;43.522;1.348;2023-10-31T12:10:24;99763.69;;;19.36;51.81
80308;BME280;69616;43.522;1.348;2023-10-31T12:12:51;99767.63;;;19.47;52.67
80308;BME280;69616;43.522;1.348;2023-10-31T12:15:16;99760.59;;;19.63;51.34
80308;BME280;69616;43.522;1.348;2023-10-31T12:17:42;99756.66;;;19.71;51.29
80308;BME280;69616;43.522;1.348;2023-10-31T12:20:08;99761.13;;;19.88;51.71
80308;BME280;69616;43.522;1.348;2023-10-31T12:22:34;99757.94;;;19.99;51.84
80308;BME280;69616;43.522;1.348;2023-10-31T12:25:03;99748.59;;;20.07;52.04
80308;BME280;69616;43.522;1.348;2023-10-31T12:27:50;99748.81;;;20.20;50.21
80308;BME280;69616;43.522;1.348;2023-10-31T12:30:18;99739.03;;;20.37;49.79
80308;BME280;69616;43.522;1.348;2023-10-31T12:32:44;99738.50;;;20.30;49.63
80308;BME280;69616;43.522;1.348;2023-10-31T12:35:12;99729.69;;;20.28;49.78
80308;BME280;69616;43.522;1.348;2023-10-31T12:37:48;99731.44;;;20.29;49.65
80308;BME280;69616;43.522;1.348;2023-10-31T12:40:17;99722.28;;;20.33;49.47
80308;BME280;69616;43.522;1.348;2023-10-31T12:42:44;99724.53;;;20.25;50.18
80308;BME280;69616;43.522;1.348;2023-10-31T12:45:11;99724.53;;;20.25;50.29
80308;BME280;69616;43.522;1.348;2023-10-31T12:47:37;99718.66;;;20.34;50.16
80308;BME280;69616;43.522;1.348;2023-10-31T12:50:12;99718.50;;;20.37;50.15
80308;BME280;69616;43.522;1.348;2023-10-31T12:52:51;99731.28;;;20.48;49.88
80308;BME280;69616;43.522;1.348;2023-10-31T12:55:18;99719.13;;;20.43;49.74
80308;BME280;69616;43.522;1.348;2023-10-31T12:57:45;99723.53;;;20.44;49.80
80308;BME280;69616;43.522;1.348;2023-10-31T13:00:12;99719.53;;;20.35;49.60
80308;BME280;69616;43.522;1.348;2023-10-31T13:02:41;99719.38;;;20.38;49.42